sensor_id;sensor_type;location;lat;lon;timestamp;temperature;humidity
20400;DHT22;10359;53.596;22.520;2022-08-19T00:02:04;19.50;99.90
20400;DHT22;10359;53.596;22.520;2022-08-19T00:04:35;19.50;99.90
20400;DHT22;10359;53.596;22.520;2022-08-19T00:07:06;19.50;99.90
20400;DHT22;10359;53.596;22.520;2022-08-19T00:09:35;19.50;99.90
20400;DHT22;10359;53.596;22.520;2022-08-19T00:12:05;19.40;99.90
20400;DHT22;10359;53.596;22.520;2022-08-19T00:14:41;19.30;99.90
20400;DHT22;10359;53.596;22.520;2022-08-19T00:17:10;19.30;99.90
20400;DHT22;10359;53.596;22.520;2022-08-19T00:19:41;19.30;99.90
20400;DHT22;10359;53.596;22.520;2022-08-19T00:22:10;19.30;99.90
20400;DHT22;10359;53.596;22.520;2022-08-19T00:24:41;19.20;99.90
20400;DHT22;10359;53.596;22.520;2022-08-19T00:27:17;19.20;99.90
20400;DHT22;10359;53.596;22.520;2022-08-19T00:29:53;19.20;99.90
20400;DHT22;10359;53.596;22.520;2022-08-19T00:32:22;19.20;99.90
20400;DHT22;10359;53.596;22.520;2022-08-19T00:34:54;19.10;99.90
20400;DHT22;10359;53.596;22.520;2022-08-19T00:37:24;19.10;99.90
20400;DHT22;10359;53.596;22.520;2022-08-19T00:39:54;19.10;99.90
20400;DHT22;10359;53.596;22.520;2022-08-19T00:42:24;19.10;99.90
20400;DHT22;10359;53.596;22.520;2022-08-19T00:44:55;19.00;99.90
20400;DHT22;10359;53.596;22.520;2022-08-19T00:47:25;19.00;99.90
20400;DHT22;10359;53.596;22.520;2022-08-19T00:49:57;19.00;99.90
20400;DHT22;10359;53.596;22.520;2022-08-19T00:52:29;19.00;99.90
20400;DHT22;10359;53.596;22.520;2022-08-19T00:55:03;19.00;99.90
20400;DHT22;10359;53.596;22.520;2022-08-19T00:57:36;19.00;99.90
20400;DHT22;10359;53.596;22.520;2022-08-19T01:00:10;19.00;99.90
20400;DHT22;10359;53.596;22.520;2022-08-19T01:02:41;18.90;99.90
20400;DHT22;10359;53.596;22.520;2022-08-19T01:05:16;18.90;99.90
20400;DHT22;10359;53.596;22.520;2022-08-19T01:07:46;18.90;99.90
20400;DHT22;10359;53.596;22.520;2022-08-19T01:10:20;18.90;99.90
20400;DHT22;10359;53.596;22.520;2022-08-19T01:12:50;18.90;99.90
20400;DHT22;10359;53.596;22.520;2022-08-19T01:15:22;18.90;99.90
20400;DHT22;10359;53.596;22.520;2022-08-19T01:17:53;18.80;99.90
20400;DHT22;10359;53.596;22.520;2022-08-19T01:20:25;18.80;99.90
20400;DHT22;10359;53.596;22.520;2022-08-19T01:22:57;18.80;99.90
20400;DHT22;10359;53.596;22.520;2022-08-19T01:25:30;18.80;99.90
20400;DHT22;10359;53.596;22.520;2022-08-19T01:28:00;18.70;99.90
20400;DHT22;10359;53.596;22.520;2022-08-19T01:30:37;18.70;99.90
20400;DHT22;10359;53.596;22.520;2022-08-19T01:33:10;18.70;99.90
20400;DHT22;10359;53.596;22.520;2022-08-19T01:35:40;18.70;99.90
20400;DHT22;10359;53.596;22.520;2022-08-19T01:38:20;18.60;99.90
20400;DHT22;10359;53.596;22.520;2022-08-19T01:40:50;18.60;99.90
20400;DHT22;10359;53.596;22.520;2022-08-19T01:43:19;18.60;99.90
20400;DHT22;10359;53.596;22.520;2022-08-19T01:45:49;18.50;99.90
20400;DHT22;10359;53.596;22.520;2022-08-19T01:48:18;18.50;99.90
20400;DHT22;10359;53.596;22.520;2022-08-19T01:50:47;18.50;99.90
20400;DHT22;10359;53.596;22.520;2022-08-19T01:53:18;18.40;99.90
20400;DHT22;10359;53.596;22.520;2022-08-19T01:55:49;18.40;99.90
20400;DHT22;10359;53.596;22.520;2022-08-19T01:58:23;18.40;99.90
20400;DHT22;10359;53.596;22.520;2022-08-19T02:00:53;18.40;99.90
20400;DHT22;10359;53.596;22.520;2022-08-19T02:03:22;18.30;99.90
20400;DHT22;10359;53.596;22.520;2022-08-19T02:05:55;18.30;99.90
20400;DHT22;10359;53.596;22.520;2022-08-19T02:08:27;18.30;99.90
20400;DHT22;10359;53.596;22.520;2022-08-19T02:13:26;18.20;99.90
20400;DHT22;10359;53.596;22.520;2022-08-19T02:15:55;18.20;99.90
20400;DHT22;10359;53.596;22.520;2022-08-19T02:18:26;18.20;99.90
20400;DHT22;10359;53.596;22.520;2022-08-19T02:20:55;18.20;99.90
20400;DHT22;10359;53.596;22.520;2022-08-19T02:23:26;18.10;99.90
20400;DHT22;10359;53.596;22.520;2022-08-19T02:25:55;18.10;99.90
20400;DHT22;10359;53.596;22.520;2022-08-19T02:28:25;18.10;99.90
20400;DHT22;10359;53.596;22.520;2022-08-19T02:30:54;18.10;99.90
20400;DHT22;10359;53.596;22.520;2022-08-19T02:33:23;18.00;99.90
20400;DHT22;10359;53.596;22.520;2022-08-19T02:35:53;18.00;99.90
20400;DHT22;10359;53.596;22.520;2022-08-19T02:38:22;17.90;99.90
20400;DHT22;10359;53.596;22.520;2022-08-19T02:41:00;17.90;99.90
20400;DHT22;10359;53.596;22.520;2022-08-19T02:43:30;17.90;99.90
20400;DHT22;10359;53.596;22.520;2022-08-19T02:46:12;17.90;99.90
20400;DHT22;10359;53.596;22.520;2022-08-19T02:48:41;17.80;99.90
20400;DHT22;10359;53.596;22.520;2022-08-19T02:51:17;17.80;99.90
20400;DHT22;10359;53.596;22.520;2022-08-19T02:53:46;17.80;99.90
20400;DHT22;10359;53.596;22.520;2022-08-19T02:56:17;17.80;99.90
20400;DHT22;10359;53.596;22.520;2022-08-19T02:58:47;17.80;99.90
20400;DHT22;10359;53.596;22.520;2022-08-19T03:01:23;17.80;99.90
20400;DHT22;10359;53.596;22.520;2022-08-19T03:03:53;17.80;99.90
20400;DHT22;10359;53.596;22.520;2022-08-19T03:06:23;17.80;99.90
20400;DHT22;10359;53.596;22.520;2022-08-19T03:08:53;17.80;99.90
20400;DHT22;10359;53.596;22.520;2022-08-19T03:11:28;17.70;99.90
20400;DHT22;10359;53.596;22.520;2022-08-19T03:13:59;17.70;99.90
20400;DHT22;10359;53.596;22.520;2022-08-19T03:16:30;17.80;99.90
20400;DHT22;10359;53.596;22.520;2022-08-19T03:19:01;17.80;99.90
20400;DHT22;10359;53.596;22.520;2022-08-19T03:21:32;17.80;99.90
20400;DHT22;10359;53.596;22.520;2022-08-19T03:24:05;17.80;99.90
20400;DHT22;10359;53.596;22.520;2022-08-19T03:26:38;17.80;99.90
20400;DHT22;10359;53.596;22.520;2022-08-19T03:29:09;17.60;99.90
20400;DHT22;10359;53.596;22.520;2022-08-19T03:31:40;17.60;99.90
20400;DHT22;10359;53.596;22.520;2022-08-19T03:34:21;17.60;99.90
20400;DHT22;10359;53.596;22.520;2022-08-19T03:36:50;17.60;99.90
20400;DHT22;10359;53.596;22.520;2022-08-19T03:39:19;17.60;99.90
20400;DHT22;10359;53.596;22.520;2022-08-19T03:41:53;17.60;99.90
20400;DHT22;10359;53.596;22.520;2022-08-19T03:44:44;17.60;99.90
20400;DHT22;10359;53.596;22.520;2022-08-19T03:47:13;17.60;99.90
20400;DHT22;10359;53.596;22.520;2022-08-19T03:49:44;17.60;99.90
20400;DHT22;10359;53.596;22.520;2022-08-19T03:52:13;17.60;99.90
20400;DHT22;10359;53.596;22.520;2022-08-19T03:54:43;17.70;99.90
20400;DHT22;10359;53.596;22.520;2022-08-19T03:57:14;17.70;99.90
20400;DHT22;10359;53.596;22.520;2022-08-19T03:59:43;17.70;99.90
20400;DHT22;10359;53.596;22.520;2022-08-19T04:02:13;17.70;99.90
20400;DHT22;10359;53.596;22.520;2022-08-19T04:04:43;17.80;99.90
20400;DHT22;10359;53.596;22.520;2022-08-19T04:07:14;17.80;99.90
20400;DHT22;10359;53.596;22.520;2022-08-19T04:09:46;17.90;99.90
20400;DHT22;10359;53.596;22.520;2022-08-19T04:12:18;18.00;99.90
20400;DHT22;10359;53.596;22.520;2022-08-19T04:14:47;18.00;99.90
20400;DHT22;10359;53.596;22.520;2022-08-19T04:17:17;18.00;99.90
20400;DHT22;10359;53.596;22.520;2022-08-19T04:19:47;18.10;99.90
20400;DHT22;10359;53.596;22.520;2022-08-19T04:22:17;18.10;99.90
20400;DHT22;10359;53.596;22.520;2022-08-19T04:24:48;18.20;99.90
20400;DHT22;10359;53.596;22.520;2022-08-19T04:27:19;18.20;99.90
20400;DHT22;10359;53.596;22.520;2022-08-19T04:29:48;18.30;99.90
20400;DHT22;10359;53.596;22.520;2022-08-19T04:32:18;18.30;99.90
20400;DHT22;10359;53.596;22.520;2022-08-19T04:34:48;18.30;99.90
20400;DHT22;10359;53.596;22.520;2022-08-19T04:37:38;18.40;99.90
20400;DHT22;10359;53.596;22.520;2022-08-19T04:40:08;18.40;99.90
20400;DHT22;10359;53.596;22.520;2022-08-19T04:42:56;18.50;99.90
20400;DHT22;10359;53.596;22.520;2022-08-19T04:45:25;18.60;99.90
20400;DHT22;10359;53.596;22.520;2022-08-19T04:48:05;18.70;99.90
20400;DHT22;10359;53.596;22.520;2022-08-19T04:50:55;18.70;99.90
20400;DHT22;10359;53.596;22.520;2022-08-19T04:53:26;18.80;99.90
20400;DHT22;10359;53.596;22.520;2022-08-19T04:56:06;18.90;99.90
20400;DHT22;10359;53.596;22.520;2022-08-19T04:58:38;19.10;99.90
20400;DHT22;10359;53.596;22.520;2022-08-19T05:01:12;19.20;99.90
20400;DHT22;10359;53.596;22.520;2022-08-19T05:03:41;19.20;99.90
20400;DHT22;10359;53.596;22.520;2022-08-19T05:06:12;19.40;99.90
20400;DHT22;10359;53.596;22.520;2022-08-19T05:08:43;19.50;99.90
20400;DHT22;10359;53.596;22.520;2022-08-19T05:11:14;19.60;99.90
20400;DHT22;10359;53.596;22.520;2022-08-19T05:13:45;19.70;99.90
20400;DHT22;10359;53.596;22.520;2022-08-19T05:16:17;19.80;99.90
20400;DHT22;10359;53.596;22.520;2022-08-19T05:18:47;20.00;99.90
20400;DHT22;10359;53.596;22.520;2022-08-19T05:21:35;20.10;99.90
20400;DHT22;10359;53.596;22.520;2022-08-19T05:24:23;20.20;99.90
20400;DHT22;10359;53.596;22.520;2022-08-19T05:26:57;20.40;99.90
20400;DHT22;10359;53.596;22.520;2022-08-19T05:29:28;20.50;99.90
20400;DHT22;10359;53.596;22.520;2022-08-19T05:32:03;20.70;99.90
20400;DHT22;10359;53.596;22.520;2022-08-19T05:34:36;20.90;99.90
20400;DHT22;10359;53.596;22.520;2022-08-19T05:37:07;21.00;99.90
20400;DHT22;10359;53.596;22.520;2022-08-19T05:39:37;21.00;99.90
20400;DHT22;10359;53.596;22.520;2022-08-19T05:42:09;21.10;99.90
20400;DHT22;10359;53.596;22.520;2022-08-19T05:44:42;21.20;99.90
20400;DHT22;10359;53.596;22.520;2022-08-19T05:47:13;21.30;99.90
20400;DHT22;10359;53.596;22.520;2022-08-19T05:49:42;21.50;99.90
20400;DHT22;10359;53.596;22.520;2022-08-19T05:52:12;21.60;99.90
20400;DHT22;10359;53.596;22.520;2022-08-19T05:54:45;21.70;99.90
20400;DHT22;10359;53.596;22.520;2022-08-19T05:57:18;21.90;99.90
20400;DHT22;10359;53.596;22.520;2022-08-19T05:59:49;22.00;99.90
20400;DHT22;10359;53.596;22.520;2022-08-19T06:02:24;22.20;99.90
20400;DHT22;10359;53.596;22.520;2022-08-19T06:04:53;22.30;99.90
20400;DHT22;10359;53.596;22.520;2022-08-19T06:07:22;22.40;99.90
20400;DHT22;10359;53.596;22.520;2022-08-19T06:09:52;22.60;99.90
20400;DHT22;10359;53.596;22.520;2022-08-19T06:12:27;22.60;99.90
20400;DHT22;10359;53.596;22.520;2022-08-19T06:15:03;22.70;99.90
20400;DHT22;10359;53.596;22.520;2022-08-19T06:17:32;22.80;99.90
20400;DHT22;10359;53.596;22.520;2022-08-19T06:20:03;22.90;99.90
20400;DHT22;10359;53.596;22.520;2022-08-19T06:22:37;22.90;99.90
20400;DHT22;10359;53.596;22.520;2022-08-19T06:25:07;23.10;99.90
20400;DHT22;10359;53.596;22.520;2022-08-19T06:27:37;23.30;99.90
20400;DHT22;10359;53.596;22.520;2022-08-19T06:30:27;23.40;99.90
20400;DHT22;10359;53.596;22.520;2022-08-19T06:32:56;23.50;99.90
20400;DHT22;10359;53.596;22.520;2022-08-19T06:35:25;23.60;99.90
20400;DHT22;10359;53.596;22.520;2022-08-19T06:37:56;23.80;99.90
20400;DHT22;10359;53.596;22.520;2022-08-19T06:40:26;23.90;99.90
20400;DHT22;10359;53.596;22.520;2022-08-19T06:42:55;23.90;99.90
20400;DHT22;10359;53.596;22.520;2022-08-19T06:45:30;24.10;99.90
20400;DHT22;10359;53.596;22.520;2022-08-19T06:48:05;24.20;99.90
20400;DHT22;10359;53.596;22.520;2022-08-19T06:50:34;24.40;99.90
20400;DHT22;10359;53.596;22.520;2022-08-19T06:53:07;24.50;99.90
20400;DHT22;10359;53.596;22.520;2022-08-19T06:55:36;24.60;99.90
20400;DHT22;10359;53.596;22.520;2022-08-19T06:58:05;24.60;99.90
20400;DHT22;10359;53.596;22.520;2022-08-19T07:00:37;24.70;99.90
20400;DHT22;10359;53.596;22.520;2022-08-19T07:03:06;24.80;99.90
20400;DHT22;10359;53.596;22.520;2022-08-19T07:05:40;24.90;99.90
20400;DHT22;10359;53.596;22.520;2022-08-19T07:08:12;25.10;99.90
20400;DHT22;10359;53.596;22.520;2022-08-19T07:10:43;25.30;99.90
20400;DHT22;10359;53.596;22.520;2022-08-19T07:13:13;25.40;99.90
20400;DHT22;10359;53.596;22.520;2022-08-19T07:15:43;25.60;99.90
20400;DHT22;10359;53.596;22.520;2022-08-19T07:18:14;25.80;99.90
20400;DHT22;10359;53.596;22.520;2022-08-19T07:20:43;26.00;99.90
20400;DHT22;10359;53.596;22.520;2022-08-19T07:23:12;26.00;99.90
20400;DHT22;10359;53.596;22.520;2022-08-19T07:25:42;26.00;99.90
20400;DHT22;10359;53.596;22.520;2022-08-19T07:28:19;26.00;99.90
20400;DHT22;10359;53.596;22.520;2022-08-19T07:30:52;26.00;99.90
20400;DHT22;10359;53.596;22.520;2022-08-19T07:33:21;26.10;99.90
20400;DHT22;10359;53.596;22.520;2022-08-19T07:35:54;26.10;99.90
20400;DHT22;10359;53.596;22.520;2022-08-19T07:38:23;26.30;99.90
20400;DHT22;10359;53.596;22.520;2022-08-19T07:40:53;26.40;99.90
20400;DHT22;10359;53.596;22.520;2022-08-19T07:43:22;26.40;99.90
20400;DHT22;10359;53.596;22.520;2022-08-19T07:46:02;26.50;99.90
20400;DHT22;10359;53.596;22.520;2022-08-19T07:48:31;26.50;99.90
20400;DHT22;10359;53.596;22.520;2022-08-19T07:51:05;26.50;99.90
20400;DHT22;10359;53.596;22.520;2022-08-19T07:53:37;26.70;99.90
20400;DHT22;10359;53.596;22.520;2022-08-19T07:56:06;26.90;99.90
20400;DHT22;10359;53.596;22.520;2022-08-19T07:58:39;26.70;99.90
20400;DHT22;10359;53.596;22.520;2022-08-19T08:01:13;26.80;99.90
20400;DHT22;10359;53.596;22.520;2022-08-19T08:03:42;26.80;99.90
20400;DHT22;10359;53.596;22.520;2022-08-19T08:06:29;27.00;99.90
20400;DHT22;10359;53.596;22.520;2022-08-19T08:09:32;27.30;99.90
20400;DHT22;10359;53.596;22.520;2022-08-19T08:12:08;27.20;99.90
20400;DHT22;10359;53.596;22.520;2022-08-19T08:15:00;27.50;99.90
20400;DHT22;10359;53.596;22.520;2022-08-19T08:17:36;27.60;99.90
20400;DHT22;10359;53.596;22.520;2022-08-19T08:20:16;27.70;99.90
20400;DHT22;10359;53.596;22.520;2022-08-19T08:22:46;27.90;99.90
20400;DHT22;10359;53.596;22.520;2022-08-19T08:25:41;28.00;99.90
20400;DHT22;10359;53.596;22.520;2022-08-19T08:28:15;28.20;99.90
20400;DHT22;10359;53.596;22.520;2022-08-19T08:30:45;28.40;99.90
20400;DHT22;10359;53.596;22.520;2022-08-19T08:33:20;28.30;99.90
20400;DHT22;10359;53.596;22.520;2022-08-19T08:36:00;28.40;99.90
20400;DHT22;10359;53.596;22.520;2022-08-19T08:38:30;28.60;99.90
20400;DHT22;10359;53.596;22.520;2022-08-19T08:41:16;28.70;99.90
20400;DHT22;10359;53.596;22.520;2022-08-19T08:43:49;28.90;99.90
20400;DHT22;10359;53.596;22.520;2022-08-19T08:46:24;28.70;99.90
20400;DHT22;10359;53.596;22.520;2022-08-19T08:49:03;28.90;99.90
20400;DHT22;10359;53.596;22.520;2022-08-19T08:51:41;28.90;99.90
20400;DHT22;10359;53.596;22.520;2022-08-19T08:54:17;28.90;99.90
20400;DHT22;10359;53.596;22.520;2022-08-19T08:56:47;29.00;99.90
20400;DHT22;10359;53.596;22.520;2022-08-19T08:59:21;28.90;99.90
20400;DHT22;10359;53.596;22.520;2022-08-19T09:01:53;29.20;99.90
20400;DHT22;10359;53.596;22.520;2022-08-19T09:04:23;29.30;99.90
20400;DHT22;10359;53.596;22.520;2022-08-19T09:06:59;29.50;99.90
20400;DHT22;10359;53.596;22.520;2022-08-19T09:09:56;29.40;99.90
20400;DHT22;10359;53.596;22.520;2022-08-19T09:12:38;29.60;99.90
20400;DHT22;10359;53.596;22.520;2022-08-19T09:15:14;29.80;99.90
20400;DHT22;10359;53.596;22.520;2022-08-19T09:17:59;30.00;99.90
20400;DHT22;10359;53.596;22.520;2022-08-19T09:20:34;30.00;99.90
20400;DHT22;10359;53.596;22.520;2022-08-19T09:23:08;30.00;99.90
20400;DHT22;10359;53.596;22.520;2022-08-19T09:25:38;30.10;99.90
20400;DHT22;10359;53.596;22.520;2022-08-19T09:28:08;30.10;99.90
20400;DHT22;10359;53.596;22.520;2022-08-19T09:30:48;29.90;99.90
20400;DHT22;10359;53.596;22.520;2022-08-19T09:33:19;29.90;99.90
20400;DHT22;10359;53.596;22.520;2022-08-19T09:35:49;29.90;99.90
20400;DHT22;10359;53.596;22.520;2022-08-19T09:38:20;30.20;99.90
20400;DHT22;10359;53.596;22.520;2022-08-19T09:40:49;30.20;99.90
20400;DHT22;10359;53.596;22.520;2022-08-19T09:43:18;30.30;99.90
20400;DHT22;10359;53.596;22.520;2022-08-19T09:46:00;30.40;99.90
20400;DHT22;10359;53.596;22.520;2022-08-19T09:48:29;30.40;99.90
20400;DHT22;10359;53.596;22.520;2022-08-19T09:51:04;30.60;99.90
20400;DHT22;10359;53.596;22.520;2022-08-19T09:53:38;30.90;99.90
20400;DHT22;10359;53.596;22.520;2022-08-19T09:56:10;30.90;99.90
20400;DHT22;10359;53.596;22.520;2022-08-19T09:58:39;30.90;99.90
20400;DHT22;10359;53.596;22.520;2022-08-19T10:01:14;30.90;99.90
20400;DHT22;10359;53.596;22.520;2022-08-19T10:03:46;30.90;99.90
20400;DHT22;10359;53.596;22.520;2022-08-19T10:06:18;30.80;99.90
20400;DHT22;10359;53.596;22.520;2022-08-19T10:09:09;30.90;99.90
20400;DHT22;10359;53.596;22.520;2022-08-19T10:11:40;31.10;99.90
20400;DHT22;10359;53.596;22.520;2022-08-19T10:14:20;31.30;99.90
20400;DHT22;10359;53.596;22.520;2022-08-19T10:16:50;31.40;99.90
20400;DHT22;10359;53.596;22.520;2022-08-19T10:19:20;31.30;99.90
20400;DHT22;10359;53.596;22.520;2022-08-19T10:21:54;31.50;99.90
20400;DHT22;10359;53.596;22.520;2022-08-19T10:24:26;31.30;99.90
20400;DHT22;10359;53.596;22.520;2022-08-19T10:26:57;31.40;99.90
20400;DHT22;10359;53.596;22.520;2022-08-19T10:29:27;31.60;99.90
20400;DHT22;10359;53.596;22.520;2022-08-19T10:32:00;31.80;99.90
20400;DHT22;10359;53.596;22.520;2022-08-19T10:34:30;31.70;99.90
20400;DHT22;10359;53.596;22.520;2022-08-19T10:37:00;31.60;99.90
20400;DHT22;10359;53.596;22.520;2022-08-19T10:39:36;31.20;99.90
20400;DHT22;10359;53.596;22.520;2022-08-19T10:42:10;31.40;99.90
20400;DHT22;10359;53.596;22.520;2022-08-19T10:44:40;31.70;99.90
20400;DHT22;10359;53.596;22.520;2022-08-19T10:47:10;31.80;99.90
20400;DHT22;10359;53.596;22.520;2022-08-19T10:49:51;31.60;99.90
20400;DHT22;10359;53.596;22.520;2022-08-19T10:52:40;31.60;99.90
20400;DHT22;10359;53.596;22.520;2022-08-19T10:55:18;31.40;99.90
20400;DHT22;10359;53.596;22.520;2022-08-19T10:58:10;31.60;99.90
20400;DHT22;10359;53.596;22.520;2022-08-19T11:00:39;31.70;99.90
20400;DHT22;10359;53.596;22.520;2022-08-19T11:03:09;31.90;99.90
20400;DHT22;10359;53.596;22.520;2022-08-19T11:05:38;31.90;99.90
20400;DHT22;10359;53.596;22.520;2022-08-19T11:08:09;32.00;99.90
20400;DHT22;10359;53.596;22.520;2022-08-19T11:10:51;32.10;99.90
20400;DHT22;10359;53.596;22.520;2022-08-19T11:13:29;31.80;99.90
20400;DHT22;10359;53.596;22.520;2022-08-19T11:15:59;32.10;99.90
20400;DHT22;10359;53.596;22.520;2022-08-19T11:18:35;32.00;99.90
20400;DHT22;10359;53.596;22.520;2022-08-19T11:21:10;31.80;99.90
20400;DHT22;10359;53.596;22.520;2022-08-19T11:23:41;31.80;99.90
20400;DHT22;10359;53.596;22.520;2022-08-19T11:26:10;31.60;99.90
20400;DHT22;10359;53.596;22.520;2022-08-19T11:28:40;31.60;99.90
20400;DHT22;10359;53.596;22.520;2022-08-19T11:31:14;31.70;99.90
20400;DHT22;10359;53.596;22.520;2022-08-19T11:33:44;31.60;99.90
20400;DHT22;10359;53.596;22.520;2022-08-19T11:36:14;31.70;99.90
20400;DHT22;10359;53.596;22.520;2022-08-19T11:38:45;32.00;99.90
20400;DHT22;10359;53.596;22.520;2022-08-19T11:41:17;32.00;99.90
20400;DHT22;10359;53.596;22.520;2022-08-19T11:43:48;31.80;99.90
20400;DHT22;10359;53.596;22.520;2022-08-19T11:46:20;31.80;99.90
20400;DHT22;10359;53.596;22.520;2022-08-19T11:48:50;31.80;99.90
20400;DHT22;10359;53.596;22.520;2022-08-19T11:51:21;31.90;99.90
20400;DHT22;10359;53.596;22.520;2022-08-19T11:53:54;32.00;99.90
20400;DHT22;10359;53.596;22.520;2022-08-19T11:56:24;32.00;99.90
20400;DHT22;10359;53.596;22.520;2022-08-19T11:58:54;32.00;99.90
20400;DHT22;10359;53.596;22.520;2022-08-19T12:01:25;32.20;99.90
20400;DHT22;10359;53.596;22.520;2022-08-19T12:03:55;32.30;99.90
20400;DHT22;10359;53.596;22.520;2022-08-19T12:06:29;32.40;99.90
20400;DHT22;10359;53.596;22.520;2022-08-19T12:09:04;32.10;99.90
20400;DHT22;10359;53.596;22.520;2022-08-19T12:11:34;32.30;99.90
20400;DHT22;10359;53.596;22.520;2022-08-19T12:14:04;32.20;99.90
20400;DHT22;10359;53.596;22.520;2022-08-19T12:16:33;32.30;99.90
20400;DHT22;10359;53.596;22.520;2022-08-19T12:19:10;32.50;99.90
20400;DHT22;10359;53.596;22.520;2022-08-19T12:21:48;32.20;99.90
20400;DHT22;10359;53.596;22.520;2022-08-19T12:24:19;32.30;99.90
20400;DHT22;10359;53.596;22.520;2022-08-19T12:26:51;32.70;99.90
20400;DHT22;10359;53.596;22.520;2022-08-19T12:29:27;32.90;99.90
20400;DHT22;10359;53.596;22.520;2022-08-19T12:31:57;33.20;99.90
20400;DHT22;10359;53.596;22.520;2022-08-19T12:34:31;33.20;99.90
20400;DHT22;10359;53.596;22.520;2022-08-19T12:37:02;33.30;99.90
20400;DHT22;10359;53.596;22.520;2022-08-19T12:39:37;33.50;99.90
20400;DHT22;10359;53.596;22.520;2022-08-19T12:42:06;33.20;99.90
20400;DHT22;10359;53.596;22.520;2022-08-19T12:44:36;33.30;99.90
20400;DHT22;10359;53.596;22.520;2022-08-19T12:47:09;33.50;99.90
20400;DHT22;10359;53.596;22.520;2022-08-19T12:49:40;33.50;99.90
20400;DHT22;10359;53.596;22.520;2022-08-19T12:52:21;33.30;99.90
20400;DHT22;10359;53.596;22.520;2022-08-19T12:54:53;32.90;99.90
20400;DHT22;10359;53.596;22.520;2022-08-19T12:57:23;32.90;99.90
20400;DHT22;10359;53.596;22.520;2022-08-19T13:00:00;32.80;99.90
20400;DHT22;10359;53.596;22.520;2022-08-19T13:02:32;32.70;99.90
20400;DHT22;10359;53.596;22.520;2022-08-19T13:17:20;32.90;99.90
20400;DHT22;10359;53.596;22.520;2022-08-19T13:19:50;32.90;99.90
20400;DHT22;10359;53.596;22.520;2022-08-19T13:22:19;33.10;99.90
20400;DHT22;10359;53.596;22.520;2022-08-19T13:24:48;33.30;99.90
20400;DHT22;10359;53.596;22.520;2022-08-19T13:27:18;33.20;99.90
20400;DHT22;10359;53.596;22.520;2022-08-19T13:29:46;33.00;99.90
20400;DHT22;10359;53.596;22.520;2022-08-19T13:32:34;33.80;99.90
20400;DHT22;10359;53.596;22.520;2022-08-19T13:35:21;34.70;99.90
20400;DHT22;10359;53.596;22.520;2022-08-19T13:37:50;35.80;99.90
20400;DHT22;10359;53.596;22.520;2022-08-19T13:40:24;35.50;99.90
20400;DHT22;10359;53.596;22.520;2022-08-19T13:42:54;35.10;99.90
20400;DHT22;10359;53.596;22.520;2022-08-19T13:45:26;34.40;99.90
20400;DHT22;10359;53.596;22.520;2022-08-19T13:47:57;34.80;99.90
20400;DHT22;10359;53.596;22.520;2022-08-19T13:50:28;36.40;99.90
20400;DHT22;10359;53.596;22.520;2022-08-19T13:52:59;36.70;99.90
20400;DHT22;10359;53.596;22.520;2022-08-19T13:55:28;35.70;99.90
20400;DHT22;10359;53.596;22.520;2022-08-19T13:57:59;36.40;99.90
20400;DHT22;10359;53.596;22.520;2022-08-19T14:00:30;36.70;99.90
20400;DHT22;10359;53.596;22.520;2022-08-19T14:03:02;36.80;99.90
20400;DHT22;10359;53.596;22.520;2022-08-19T14:05:36;37.10;99.90
20400;DHT22;10359;53.596;22.520;2022-08-19T14:08:05;37.30;99.90
20400;DHT22;10359;53.596;22.520;2022-08-19T14:10:34;38.00;99.90
20400;DHT22;10359;53.596;22.520;2022-08-19T14:13:03;36.70;99.90
20400;DHT22;10359;53.596;22.520;2022-08-19T14:15:32;35.10;99.90
20400;DHT22;10359;53.596;22.520;2022-08-19T14:18:03;34.10;99.90
20400;DHT22;10359;53.596;22.520;2022-08-19T14:20:34;33.40;99.90
20400;DHT22;10359;53.596;22.520;2022-08-19T14:23:03;32.80;99.90
20400;DHT22;10359;53.596;22.520;2022-08-19T14:25:43;32.30;99.90
20400;DHT22;10359;53.596;22.520;2022-08-19T14:28:12;31.90;99.90
20400;DHT22;10359;53.596;22.520;2022-08-19T14:30:41;31.80;99.90
20400;DHT22;10359;53.596;22.520;2022-08-19T14:33:13;31.60;99.90
20400;DHT22;10359;53.596;22.520;2022-08-19T14:35:42;31.60;99.90
20400;DHT22;10359;53.596;22.520;2022-08-19T14:38:16;31.20;99.90
20400;DHT22;10359;53.596;22.520;2022-08-19T14:41:06;31.30;99.90
20400;DHT22;10359;53.596;22.520;2022-08-19T14:43:36;31.20;99.90
20400;DHT22;10359;53.596;22.520;2022-08-19T14:46:05;31.10;99.90
20400;DHT22;10359;53.596;22.520;2022-08-19T14:48:38;31.10;99.90
20400;DHT22;10359;53.596;22.520;2022-08-19T14:51:08;31.00;99.90
20400;DHT22;10359;53.596;22.520;2022-08-19T14:53:37;30.70;99.90
20400;DHT22;10359;53.596;22.520;2022-08-19T14:56:10;30.70;99.90
20400;DHT22;10359;53.596;22.520;2022-08-19T14:58:40;30.70;99.90
20400;DHT22;10359;53.596;22.520;2022-08-19T15:01:10;30.50;99.90
20400;DHT22;10359;53.596;22.520;2022-08-19T15:03:41;30.50;99.90
20400;DHT22;10359;53.596;22.520;2022-08-19T15:06:19;30.40;99.90
20400;DHT22;10359;53.596;22.520;2022-08-19T15:08:48;30.40;99.90
20400;DHT22;10359;53.596;22.520;2022-08-19T15:11:20;30.40;99.90
20400;DHT22;10359;53.596;22.520;2022-08-19T15:13:50;30.30;99.90
20400;DHT22;10359;53.596;22.520;2022-08-19T15:16:19;30.30;99.90
20400;DHT22;10359;53.596;22.520;2022-08-19T15:18:52;30.20;99.90
20400;DHT22;10359;53.596;22.520;2022-08-19T15:21:24;30.20;99.90
20400;DHT22;10359;53.596;22.520;2022-08-19T15:23:54;30.10;99.90
20400;DHT22;10359;53.596;22.520;2022-08-19T15:26:24;30.10;99.90
20400;DHT22;10359;53.596;22.520;2022-08-19T15:28:53;30.10;99.90
20400;DHT22;10359;53.596;22.520;2022-08-19T15:31:23;30.20;99.90
20400;DHT22;10359;53.596;22.520;2022-08-19T15:33:56;30.10;99.90
20400;DHT22;10359;53.596;22.520;2022-08-19T15:36:26;30.20;99.90
20400;DHT22;10359;53.596;22.520;2022-08-19T15:38:55;30.10;99.90
20400;DHT22;10359;53.596;22.520;2022-08-19T15:41:27;30.00;99.90
20400;DHT22;10359;53.596;22.520;2022-08-19T15:43:59;29.90;99.90
20400;DHT22;10359;53.596;22.520;2022-08-19T15:46:32;29.90;99.90
20400;DHT22;10359;53.596;22.520;2022-08-19T15:49:03;29.90;99.90
20400;DHT22;10359;53.596;22.520;2022-08-19T15:51:34;29.80;99.90
20400;DHT22;10359;53.596;22.520;2022-08-19T15:54:05;29.80;99.90
20400;DHT22;10359;53.596;22.520;2022-08-19T15:56:35;29.70;99.90
20400;DHT22;10359;53.596;22.520;2022-08-19T15:59:24;29.70;99.90
20400;DHT22;10359;53.596;22.520;2022-08-19T16:02:14;29.60;99.90
20400;DHT22;10359;53.596;22.520;2022-08-19T16:05:07;29.40;99.90